createdAt,value
2023-11-17T00:02:37.844Z,21.13
2023-11-17T00:05:24.302Z,21.42
2023-11-17T00:08:10.837Z,21.35
2023-11-17T00:10:57.228Z,21.38
2023-11-17T00:13:44.585Z,21.20
2023-11-17T00:16:31.938Z,21.20
2023-11-17T00:19:19.606Z,21.90
2023-11-17T00:22:06.110Z,21.67
2023-11-17T00:24:53.613Z,21.30
2023-11-17T00:27:40.356Z,22.20
2023-11-17T00:30:26.642Z,22.42
2023-11-17T00:33:13.896Z,22.60
2023-11-17T00:39:10.287Z,22.05
2023-11-17T00:41:58.260Z,21.42
2023-11-17T00:44:44.320Z,21.20
2023-11-17T00:47:32.648Z,21.98
2023-11-17T00:50:18.922Z,22.35
2023-11-17T00:53:06.968Z,21.20
2023-11-17T00:55:57.729Z,20.88
2023-11-17T00:58:45.629Z,21.98
2023-11-17T01:01:31.918Z,21.15
2023-11-17T01:04:21.345Z,20.77
2023-11-17T01:07:08.193Z,20.65
2023-11-17T01:09:54.873Z,21.23
2023-11-17T01:12:41.091Z,21.33
2023-11-17T01:15:28.913Z,21.27
2023-11-17T01:18:15.870Z,21.35
2023-11-17T01:21:04.030Z,21.42
2023-11-17T01:23:50.503Z,22.20
2023-11-17T01:26:36.595Z,21.77
2023-11-17T01:29:23.225Z,21.70
2023-11-17T01:32:11.749Z,21.33
2023-11-17T01:34:57.881Z,21.35
2023-11-17T01:37:45.345Z,21.30
2023-11-17T01:40:32.324Z,20.58
2023-11-17T01:43:19.582Z,21.30
2023-11-17T01:46:07.430Z,20.27
2023-11-17T01:48:54.307Z,20.42
2023-11-17T01:51:40.772Z,19.90
2023-11-17T01:54:26.992Z,19.75
2023-11-17T01:57:13.192Z,19.38
2023-11-17T02:00:00.147Z,18.98
2023-11-17T02:02:50.294Z,19.67
2023-11-17T02:05:39.465Z,19.40
2023-11-17T02:08:52.601Z,19.33
2023-11-17T02:11:45.664Z,20.13
2023-11-17T02:14:38.381Z,20.13
2023-11-17T02:17:29.835Z,19.50
2023-11-17T02:20:21.545Z,18.95
2023-11-17T02:26:19.569Z,21.05
2023-11-17T02:29:29.048Z,21.05
2023-11-17T02:32:17.690Z,21.33
2023-11-17T02:35:04.323Z,20.15
2023-11-17T02:37:51.909Z,19.95
2023-11-17T02:40:39.582Z,21.02
2023-11-17T02:43:31.285Z,20.50
2023-11-17T02:46:21.481Z,19.20
2023-11-17T02:49:19.055Z,21.08
2023-11-17T02:52:16.262Z,22.60
2023-11-17T02:55:05.070Z,23.88
2023-11-17T02:57:55.557Z,23.63
2023-11-17T03:00:44.202Z,23.42
2023-11-17T03:03:36.028Z,22.13
2023-11-17T03:06:23.927Z,22.70
2023-11-17T03:09:10.272Z,22.40
2023-11-17T03:12:00.619Z,22.40
2023-11-17T03:14:47.178Z,20.67
2023-11-17T03:17:34.385Z,22.90
2023-11-17T03:20:21.832Z,21.85
2023-11-17T03:23:07.719Z,21.83
2023-11-17T03:25:58.825Z,21.85
2023-11-17T03:28:45.505Z,21.35
2023-11-17T03:31:31.536Z,20.52
2023-11-17T03:34:24.634Z,21.48
2023-11-17T03:37:14.353Z,20.70
2023-11-17T03:40:08.969Z,21.30
2023-11-17T03:42:56.898Z,21.20
2023-11-17T03:45:50.640Z,20.42
2023-11-17T03:48:37.273Z,21.73
2023-11-17T03:51:23.999Z,21.58
2023-11-17T03:54:10.606Z,21.67
2023-11-17T03:56:58.361Z,20.63
2023-11-17T03:59:47.738Z,21.48
2023-11-17T04:02:34.047Z,22.13
2023-11-17T04:05:20.523Z,23.42
2023-11-17T04:08:07.546Z,23.70
2023-11-17T04:10:53.412Z,24.00
2023-11-17T04:13:43.118Z,25.48
2023-11-17T04:16:29.389Z,26.23
2023-11-17T04:19:16.283Z,25.02
2023-11-17T04:22:02.357Z,24.17
2023-11-17T04:24:49.625Z,25.00
2023-11-17T04:27:36.984Z,25.38
2023-11-17T04:30:23.622Z,24.45
2023-11-17T04:33:10.626Z,24.13
2023-11-17T04:36:00.052Z,25.73
2023-11-17T04:38:46.224Z,26.25
2023-11-17T04:41:33.471Z,28.20
2023-11-17T04:44:19.845Z,28.98
2023-11-17T04:47:07.378Z,28.67
2023-11-17T04:49:53.281Z,27.60
2023-11-17T04:52:39.651Z,27.05
2023-11-17T04:55:25.769Z,28.50
2023-11-17T04:58:15.279Z,27.77
2023-11-17T05:01:01.661Z,28.67
2023-11-17T05:03:48.644Z,28.90
2023-11-17T05:06:37.577Z,28.30
2023-11-17T05:09:30.460Z,28.13
2023-11-17T05:12:16.689Z,28.55
2023-11-17T05:15:04.114Z,27.95
2023-11-17T05:17:51.071Z,28.08
2023-11-17T05:20:39.433Z,28.17
2023-11-17T05:23:26.002Z,27.05
2023-11-17T05:26:13.623Z,26.17
2023-11-17T05:28:59.926Z,26.50
2023-11-17T05:31:46.654Z,25.10
2023-11-17T05:34:34.911Z,25.80
2023-11-17T05:37:21.722Z,25.60
2023-11-17T05:40:08.733Z,25.38
2023-11-17T05:42:55.356Z,26.02
2023-11-17T05:45:41.714Z,26.48
2023-11-17T05:48:29.668Z,25.70
2023-11-17T05:51:16.421Z,26.30
2023-11-17T05:54:03.204Z,25.33
2023-11-17T05:56:50.544Z,24.50
2023-11-17T05:59:37.160Z,25.95
2023-11-17T06:02:23.477Z,25.63
2023-11-17T06:05:10.213Z,25.58
2023-11-17T06:07:56.153Z,25.63
2023-11-17T06:10:43.626Z,23.40
2023-11-17T06:13:29.867Z,24.73
2023-11-17T06:16:18.078Z,25.50
2023-11-17T06:19:06.233Z,25.90
2023-11-17T06:21:53.193Z,25.02
2023-11-17T06:24:39.842Z,26.17
2023-11-17T06:27:27.129Z,25.55
2023-11-17T06:30:13.825Z,26.13
2023-11-17T06:32:59.995Z,25.60
2023-11-17T06:35:46.186Z,26.45
2023-11-17T06:38:35.607Z,26.25
2023-11-17T06:41:22.058Z,25.40
2023-11-17T06:44:10.518Z,25.63
2023-11-17T06:46:57.356Z,26.38
2023-11-17T06:49:45.408Z,24.85
2023-11-17T06:52:31.884Z,24.55
2023-11-17T06:55:19.077Z,25.88
2023-11-17T06:58:05.864Z,25.05
2023-11-17T07:00:55.181Z,25.10
2023-11-17T07:03:45.125Z,25.05
2023-11-17T07:06:32.942Z,24.38
2023-11-17T07:09:24.651Z,23.00
2023-11-17T07:12:11.675Z,22.27
2023-11-17T07:15:00.505Z,22.77
2023-11-17T07:17:47.488Z,23.67
2023-11-17T07:20:34.515Z,23.05
2023-11-17T07:23:20.769Z,25.80
2023-11-17T07:26:18.922Z,24.35
2023-11-17T07:29:06.982Z,24.52
2023-11-17T07:31:53.265Z,24.08
2023-11-17T07:34:39.536Z,25.45
2023-11-17T07:37:26.005Z,24.17
2023-11-17T07:40:15.036Z,24.55
2023-11-17T07:43:01.348Z,23.48
2023-11-17T07:45:48.260Z,24.05
2023-11-17T07:48:41.749Z,23.20
2023-11-17T07:51:35.422Z,23.60
2023-11-17T07:54:26.679Z,23.00
2023-11-17T07:57:13.359Z,21.85
2023-11-17T07:59:59.560Z,22.45
2023-11-17T08:02:47.166Z,22.65
2023-11-17T08:05:33.491Z,22.55
2023-11-17T08:08:19.714Z,21.92
2023-11-17T08:11:06.188Z,21.42
2023-11-17T08:13:53.408Z,22.95
2023-11-17T08:16:39.802Z,21.73
2023-11-17T08:19:26.996Z,22.40
2023-11-17T08:22:12.756Z,22.90
2023-11-17T08:24:59.424Z,24.70
2023-11-17T08:27:47.545Z,28.67
2023-11-17T08:30:42.879Z,26.85
2023-11-17T08:33:36.511Z,24.55
2023-11-17T08:36:26.078Z,22.50
2023-11-17T08:39:26.834Z,25.35
2023-11-17T08:42:14.631Z,24.80
2023-11-17T08:45:08.671Z,25.27
2023-11-17T08:47:56.828Z,23.67
2023-11-17T08:50:43.385Z,26.52
2023-11-17T08:53:31.234Z,23.15
2023-11-17T08:56:19.041Z,22.65
2023-11-17T08:59:07.437Z,24.00
2023-11-17T09:01:54.565Z,21.13
2023-11-17T09:04:42.245Z,21.08
2023-11-17T09:07:30.761Z,20.38
2023-11-17T09:10:20.281Z,20.90
2023-11-17T09:13:06.416Z,20.60
2023-11-17T09:15:55.594Z,21.13
2023-11-17T09:18:42.139Z,20.88
2023-11-17T09:21:34.724Z,20.58
2023-11-17T09:24:21.567Z,20.40
2023-11-17T09:27:11.106Z,20.00
2023-11-17T09:29:57.524Z,20.38
2023-11-17T09:32:46.303Z,20.73
2023-11-17T09:35:33.767Z,20.58
2023-11-17T09:38:25.315Z,20.05
2023-11-17T09:41:17.659Z,19.70
2023-11-17T09:44:07.222Z,20.40
2023-11-17T09:47:05.585Z,20.42
2023-11-17T09:49:54.901Z,20.27
2023-11-17T09:52:45.845Z,20.63
2023-11-17T09:55:35.839Z,20.33
2023-11-17T09:58:22.385Z,20.35
2023-11-17T10:01:12.388Z,21.80
2023-11-17T10:04:00.542Z,22.05
2023-11-17T10:06:50.142Z,19.38
2023-11-17T10:09:39.915Z,19.98
2023-11-17T10:12:29.234Z,19.77
2023-11-17T10:15:25.759Z,20.08
2023-11-17T10:18:17.449Z,19.77
2023-11-17T10:21:05.532Z,19.55
2023-11-17T10:23:54.851Z,23.15
2023-11-17T10:26:41.241Z,23.25
2023-11-17T10:29:28.427Z,21.30
2023-11-17T10:32:36.267Z,19.77
2023-11-17T10:35:26.447Z,21.40
2023-11-17T10:38:17.050Z,21.25
2023-11-17T10:41:19.110Z,21.40
2023-11-17T10:44:09.634Z,21.13
2023-11-17T10:46:55.767Z,20.17
2023-11-17T10:49:42.212Z,20.27
2023-11-17T10:52:29.355Z,19.60
2023-11-17T10:55:17.127Z,20.42
2023-11-17T10:58:08.522Z,21.42
2023-11-17T11:00:57.617Z,21.80
2023-11-17T11:03:43.974Z,22.33
2023-11-17T11:06:30.999Z,21.80
2023-11-17T11:09:19.809Z,21.90
2023-11-17T11:12:09.831Z,21.42
2023-11-17T11:14:57.010Z,21.63
2023-11-17T11:18:17.132Z,20.98
2023-11-17T11:21:06.664Z,21.52
2023-11-17T11:23:57.177Z,21.10
2023-11-17T11:26:43.236Z,20.90
2023-11-17T11:29:31.314Z,20.67
2023-11-17T11:32:19.864Z,20.40
2023-11-17T11:35:06.448Z,19.92
2023-11-17T11:37:53.856Z,20.75
2023-11-17T11:40:44.102Z,20.13
2023-11-17T11:43:31.588Z,19.65
2023-11-17T11:46:20.748Z,20.13
2023-11-17T11:49:13.196Z,20.85
2023-11-17T11:52:10.985Z,20.35
2023-11-17T11:54:57.722Z,19.88
2023-11-17T11:57:58.826Z,20.25
2023-11-17T12:03:36.764Z,19.10
2023-11-17T12:06:29.494Z,18.75
2023-11-17T12:09:23.368Z,19.73
2023-11-17T12:12:10.554Z,19.38
2023-11-17T12:14:58.991Z,19.05
2023-11-17T12:17:54.628Z,19.80
2023-11-17T12:20:41.260Z,19.50
2023-11-17T12:23:50.163Z,19.00
2023-11-17T12:29:35.621Z,20.75
2023-11-17T12:32:22.770Z,19.63
2023-11-17T12:35:11.576Z,19.23
2023-11-17T12:37:57.932Z,19.17
2023-11-17T12:40:44.012Z,19.58
2023-11-17T12:43:32.549Z,19.20
2023-11-17T12:46:19.580Z,18.48
2023-11-17T12:49:10.497Z,20.30
2023-11-17T12:52:10.169Z,19.40
2023-11-17T12:55:08.827Z,18.85
2023-11-17T12:57:55.193Z,19.50
2023-11-17T13:00:41.725Z,19.00
2023-11-17T13:03:30.874Z,19.05
2023-11-17T13:06:38.851Z,18.75
2023-11-17T13:09:29.298Z,20.45
2023-11-17T13:12:16.102Z,19.83
2023-11-17T13:15:07.267Z,19.08
2023-11-17T13:17:54.229Z,18.70
2023-11-17T13:20:40.691Z,18.90
2023-11-17T13:23:28.996Z,19.27
2023-11-17T13:26:21.274Z,19.15
2023-11-17T13:29:15.748Z,19.15
2023-11-17T13:32:03.194Z,20.17
2023-11-17T13:34:56.564Z,18.95
2023-11-17T13:37:52.942Z,18.65
2023-11-17T13:40:43.571Z,18.70
2023-11-17T13:43:31.124Z,18.15
2023-11-17T13:46:21.313Z,18.13
2023-11-17T13:49:13.848Z,18.77
2023-11-17T13:52:06.307Z,19.20
2023-11-17T13:54:53.038Z,19.20
2023-11-17T13:57:39.564Z,17.70
2023-11-17T14:00:27.233Z,18.77
2023-11-17T14:03:14.291Z,17.67
2023-11-17T14:06:00.766Z,17.65
2023-11-17T14:08:47.451Z,18.15
2023-11-17T14:11:33.494Z,18.05
2023-11-17T14:14:20.732Z,17.90
2023-11-17T14:17:08.281Z,17.60
2023-11-17T14:19:58.955Z,16.63
2023-11-17T14:22:45.370Z,17.60
2023-11-17T14:25:33.006Z,17.35
2023-11-17T14:28:19.209Z,18.50
2023-11-17T14:31:09.438Z,17.27
2023-11-17T14:33:55.598Z,17.63
2023-11-17T14:36:42.586Z,17.85
2023-11-17T14:39:32.778Z,17.90
2023-11-17T14:42:21.172Z,18.50
2023-11-17T14:45:15.227Z,18.00
2023-11-17T14:48:05.100Z,18.20
2023-11-17T14:50:51.999Z,17.67
2023-11-17T14:53:38.497Z,17.90
2023-11-17T14:56:25.245Z,17.70
2023-11-17T14:59:11.784Z,17.48
2023-11-17T15:01:58.018Z,17.90
2023-11-17T15:04:44.915Z,17.67
2023-11-17T15:07:31.838Z,18.00
2023-11-17T15:10:21.114Z,18.08
2023-11-17T15:13:07.919Z,18.08
2023-11-17T15:15:54.736Z,17.70
2023-11-17T15:18:49.676Z,17.13
2023-11-17T15:21:39.247Z,17.35
2023-11-17T15:24:28.096Z,17.75
2023-11-17T15:27:16.760Z,17.85
2023-11-17T15:30:07.828Z,17.20
2023-11-17T15:32:55.931Z,17.10
2023-11-17T15:35:53.857Z,17.80
2023-11-17T15:38:44.336Z,17.58
2023-11-17T15:41:36.444Z,17.70
2023-11-17T15:44:24.898Z,17.30
2023-11-17T15:47:11.973Z,17.55
2023-11-17T15:50:04.403Z,18.15
2023-11-17T15:52:53.295Z,17.58
2023-11-17T15:55:39.682Z,17.55
2023-11-17T15:58:28.911Z,17.92
2023-11-17T16:01:23.897Z,18.35
2023-11-17T16:04:11.214Z,17.67
2023-11-17T16:06:57.820Z,17.70
2023-11-17T16:09:44.782Z,17.30
2023-11-17T16:12:30.676Z,17.48
2023-11-17T16:15:20.047Z,17.83
2023-11-17T16:18:06.494Z,16.98
2023-11-17T16:20:53.434Z,17.30
2023-11-17T16:23:40.223Z,17.38
2023-11-17T16:26:26.957Z,16.70
2023-11-17T16:29:14.298Z,16.88
2023-11-17T16:32:01.054Z,16.58
2023-11-17T16:34:49.288Z,16.95
2023-11-17T16:37:53.100Z,16.52
2023-11-17T16:40:45.429Z,16.75
2023-11-17T16:43:33.292Z,16.60
2023-11-17T16:46:21.990Z,16.30
2023-11-17T16:49:09.510Z,16.85
2023-11-17T16:51:56.188Z,16.40
2023-11-17T16:54:42.982Z,17.00
2023-11-17T16:57:29.494Z,17.08
2023-11-17T17:00:17.348Z,16.83
2023-11-17T17:03:08.182Z,18.15
2023-11-17T17:05:54.268Z,17.97
2023-11-17T17:08:41.598Z,17.00
2023-11-17T17:11:27.683Z,16.73
2023-11-17T17:14:20.436Z,16.73
2023-11-17T17:17:07.920Z,16.48
2023-11-17T17:19:55.126Z,16.98
2023-11-17T17:22:43.459Z,17.48
2023-11-17T17:25:30.275Z,17.08
2023-11-17T17:28:16.611Z,16.60
2023-11-17T17:31:04.215Z,17.00
2023-11-17T17:33:50.540Z,16.77
2023-11-17T17:36:36.561Z,17.40
2023-11-17T17:39:22.643Z,17.13
2023-11-17T17:42:09.530Z,16.85
2023-11-17T17:44:55.820Z,16.27
2023-11-17T17:47:42.323Z,16.38
2023-11-17T17:50:29.745Z,16.75
2023-11-17T17:53:18.427Z,17.35
2023-11-17T17:56:09.371Z,17.35
2023-11-17T17:58:56.720Z,17.35
2023-11-17T18:01:43.140Z,16.98
2023-11-17T18:04:29.322Z,17.17
2023-11-17T18:07:20.586Z,17.08
2023-11-17T18:10:10.634Z,17.52
2023-11-17T18:12:57.488Z,17.70
2023-11-17T18:15:44.023Z,17.15
2023-11-17T18:18:35.077Z,16.73
2023-11-17T18:21:21.295Z,16.00
2023-11-17T18:24:09.155Z,15.18
2023-11-17T18:27:00.608Z,15.02
2023-11-17T18:29:50.847Z,15.15
2023-11-17T18:32:39.282Z,15.35
2023-11-17T18:35:26.701Z,14.82
2023-11-17T18:38:12.968Z,15.60
2023-11-17T18:40:59.016Z,15.93
2023-11-17T18:43:45.471Z,16.40
2023-11-17T18:46:32.433Z,15.95
2023-11-17T18:49:19.103Z,16.08
2023-11-17T18:52:05.959Z,15.52
2023-11-17T18:54:54.536Z,15.73
2023-11-17T18:57:41.771Z,16.60
2023-11-17T19:00:29.454Z,16.10
2023-11-17T19:03:17.743Z,16.48
2023-11-17T19:06:04.141Z,16.38
2023-11-17T19:08:51.943Z,16.60
2023-11-17T19:11:39.563Z,16.17
2023-11-17T19:14:29.867Z,16.55
2023-11-17T19:17:17.059Z,16.77
2023-11-17T19:20:05.046Z,16.67
2023-11-17T19:22:51.668Z,17.00
2023-11-17T19:25:38.324Z,16.95
2023-11-17T19:28:24.782Z,16.75
2023-11-17T19:31:11.524Z,17.02
2023-11-17T19:33:58.653Z,16.98
2023-11-17T19:36:47.802Z,17.40
2023-11-17T19:39:41.949Z,16.92
2023-11-17T19:42:29.190Z,17.08
2023-11-17T19:45:21.384Z,16.15
2023-11-17T19:48:08.911Z,16.80
2023-11-17T19:50:55.174Z,16.50
2023-11-17T19:53:44.150Z,16.23
2023-11-17T19:56:31.513Z,16.63
2023-11-17T19:59:18.927Z,16.15
2023-11-17T20:02:06.619Z,16.35
2023-11-17T20:04:56.757Z,16.42
2023-11-17T20:07:46.914Z,16.60
2023-11-17T20:10:35.098Z,16.17
2023-11-17T20:13:22.618Z,16.58
2023-11-17T20:16:11.873Z,16.98
2023-11-17T20:18:58.372Z,16.58
2023-11-17T20:21:45.802Z,16.90
2023-11-17T20:24:31.697Z,16.83
2023-11-17T20:27:18.324Z,16.70
2023-11-17T20:30:05.054Z,16.65
2023-11-17T20:32:54.252Z,16.98
2023-11-17T20:35:41.487Z,17.52
2023-11-17T20:38:28.452Z,17.38
2023-11-17T20:41:16.378Z,17.13
2023-11-17T20:44:03.599Z,17.77
2023-11-17T20:46:52.251Z,17.23
2023-11-17T20:49:40.088Z,16.88
2023-11-17T20:52:26.334Z,17.05
2023-11-17T20:55:13.783Z,17.05
2023-11-17T20:58:00.664Z,16.63
2023-11-17T21:00:48.541Z,17.25
2023-11-17T21:03:35.079Z,16.88
2023-11-17T21:06:23.762Z,16.52
2023-11-17T21:09:12.245Z,16.65
2023-11-17T21:11:58.972Z,16.98
2023-11-17T21:17:33.430Z,16.55
2023-11-17T21:20:19.214Z,16.70
2023-11-17T21:23:06.788Z,17.30
2023-11-17T21:25:56.885Z,16.88
2023-11-17T21:28:44.099Z,16.92
2023-11-17T21:31:36.557Z,17.00
2023-11-17T21:34:22.876Z,16.55
2023-11-17T21:37:09.334Z,16.80
2023-11-17T21:39:55.439Z,16.73
2023-11-17T21:42:48.555Z,17.05
2023-11-17T21:45:38.290Z,16.92
2023-11-17T21:48:27.895Z,17.02
2023-11-17T21:51:14.174Z,16.88
2023-11-17T21:54:01.494Z,17.15
2023-11-17T21:56:47.197Z,17.10
2023-11-17T21:59:34.150Z,16.67
2023-11-17T22:02:20.536Z,16.73
2023-11-17T22:05:07.696Z,16.63
2023-11-17T22:07:54.908Z,16.70
2023-11-17T22:10:41.444Z,16.95
2023-11-17T22:13:27.504Z,17.10
2023-11-17T22:16:14.091Z,17.10
2023-11-17T22:19:03.664Z,17.30
2023-11-17T22:21:51.778Z,17.13
2023-11-17T22:24:37.769Z,17.50
2023-11-17T22:27:24.265Z,16.90
2023-11-17T22:30:14.050Z,17.00
2023-11-17T22:33:01.111Z,16.85
2023-11-17T22:35:47.438Z,17.23
2023-11-17T22:38:34.162Z,17.20
2023-11-17T22:41:21.689Z,17.23
2023-11-17T22:44:08.821Z,16.90
2023-11-17T22:46:57.971Z,17.08
2023-11-17T22:49:44.103Z,16.98
2023-11-17T22:52:30.705Z,17.10
2023-11-17T22:55:16.978Z,17.38
2023-11-17T22:58:03.384Z,16.55
2023-11-17T23:00:49.756Z,16.80
2023-11-17T23:03:37.004Z,17.48
2023-11-17T23:06:24.392Z,17.42
2023-11-17T23:09:13.987Z,17.63
2023-11-17T23:12:00.172Z,17.00
2023-11-17T23:14:46.972Z,16.92
2023-11-17T23:17:34.273Z,17.30
2023-11-17T23:20:22.504Z,17.48
2023-11-17T23:23:09.013Z,17.63
2023-11-17T23:25:55.489Z,17.70
2023-11-17T23:28:41.887Z,18.13
2023-11-17T23:31:28.932Z,18.42
2023-11-17T23:34:17.376Z,17.83
2023-11-17T23:37:04.929Z,18.33
2023-11-17T23:39:51.048Z,18.40
2023-11-17T23:42:37.681Z,18.88
2023-11-17T23:45:23.519Z,18.75
2023-11-17T23:48:10.875Z,18.20
2023-11-17T23:50:57.286Z,18.42
2023-11-17T23:53:45.087Z,17.90
2023-11-17T23:56:31.521Z,17.95
2023-11-17T23:59:17.883Z,18.05
